createdAt,value
2018-07-30T00:00:33.565Z,20.53
2018-07-30T00:03:07.621Z,18.90
2018-07-30T00:05:41.576Z,20.80
2018-07-30T00:08:15.341Z,19.83
2018-07-30T00:10:49.052Z,18.83
2018-07-30T00:13:23.830Z,18.70
2018-07-30T00:15:57.726Z,23.07
2018-07-30T00:18:32.593Z,20.53
2018-07-30T00:21:06.296Z,18.17
2018-07-30T00:23:40.789Z,18.87
2018-07-30T00:26:14.561Z,21.20
2018-07-30T00:28:48.892Z,18.20
2018-07-30T00:31:23.664Z,19.27
2018-07-30T00:33:57.467Z,17.53
2018-07-30T00:36:32.165Z,17.93
2018-07-30T00:39:08.453Z,18.80
2018-07-30T00:41:42.494Z,15.77
2018-07-30T00:44:16.244Z,16.07
2018-07-30T00:46:50.097Z,17.13
2018-07-30T00:49:23.651Z,18.40
2018-07-30T00:51:57.581Z,17.13
2018-07-30T00:54:31.475Z,17.77
2018-07-30T00:57:05.475Z,20.03
2018-07-30T00:59:39.917Z,20.20
2018-07-30T01:02:14.174Z,19.30
2018-07-30T01:04:48.421Z,20.80
2018-07-30T01:07:22.600Z,20.93
2018-07-30T01:09:56.580Z,21.83
2018-07-30T01:12:32.085Z,19.40
2018-07-30T01:15:07.355Z,18.83
2018-07-30T01:17:41.379Z,18.30
2018-07-30T01:20:16.868Z,23.77
2018-07-30T01:22:51.089Z,18.63
2018-07-30T01:25:24.729Z,19.73
2018-07-30T01:27:58.516Z,17.40
2018-07-30T01:30:32.440Z,18.40
2018-07-30T01:33:06.264Z,19.67
2018-07-30T01:35:39.972Z,16.30
2018-07-30T01:38:13.868Z,19.07
2018-07-30T01:40:47.723Z,18.47
2018-07-30T01:43:21.499Z,20.70
2018-07-30T01:45:55.372Z,19.63
2018-07-30T01:48:29.361Z,18.33
2018-07-30T01:51:03.276Z,20.23
2018-07-30T01:53:37.157Z,20.53
2018-07-30T01:56:10.938Z,18.80
2018-07-30T01:58:44.736Z,22.57
2018-07-30T02:01:18.520Z,20.63
2018-07-30T02:03:52.647Z,20.23
2018-07-30T02:06:26.448Z,20.67
2018-07-30T02:09:00.042Z,20.23
2018-07-30T02:11:34.144Z,20.33
2018-07-30T02:14:08.349Z,22.10
2018-07-30T02:16:42.081Z,19.67
2018-07-30T02:19:15.908Z,20.00
2018-07-30T02:21:49.604Z,19.53
2018-07-30T02:24:30.094Z,22.53
2018-07-30T02:27:04.041Z,18.90
2018-07-30T02:29:37.869Z,19.30
2018-07-30T02:32:11.546Z,18.30
2018-07-30T02:34:45.387Z,19.73
2018-07-30T02:37:19.202Z,19.93
2018-07-30T02:39:53.022Z,18.87
2018-07-30T02:42:26.763Z,19.33
2018-07-30T02:45:00.583Z,19.37
2018-07-30T02:47:34.345Z,19.43
2018-07-30T02:50:08.115Z,20.63
2018-07-30T02:52:42.013Z,18.80
2018-07-30T02:55:15.897Z,19.13
2018-07-30T02:57:49.624Z,19.37
2018-07-30T03:00:23.521Z,18.73
2018-07-30T03:02:57.418Z,20.53
2018-07-30T03:05:31.330Z,19.33
2018-07-30T03:08:05.215Z,19.93
2018-07-30T03:10:39.251Z,19.90
2018-07-30T03:13:12.871Z,19.17
2018-07-30T03:15:46.595Z,18.17
2018-07-30T03:18:20.241Z,18.63
2018-07-30T03:20:54.248Z,18.87
2018-07-30T03:23:27.935Z,18.53
2018-07-30T03:26:03.102Z,16.43
2018-07-30T03:28:38.364Z,17.77
2018-07-30T03:31:13.092Z,16.90
2018-07-30T03:33:47.062Z,17.03
2018-07-30T03:36:21.188Z,17.70
2018-07-30T03:38:55.402Z,18.17
2018-07-30T03:41:29.628Z,17.97
2018-07-30T03:44:04.128Z,23.23
2018-07-30T03:46:38.195Z,19.10
2018-07-30T03:49:12.008Z,18.27
2018-07-30T03:51:45.888Z,17.97
2018-07-30T03:54:19.595Z,17.43
2018-07-30T03:56:53.837Z,18.23
2018-07-30T03:59:27.750Z,18.73
2018-07-30T04:02:01.738Z,17.60
2018-07-30T04:04:35.621Z,19.03
2018-07-30T04:07:09.468Z,24.53
2018-07-30T04:09:43.204Z,19.13
2018-07-30T04:12:16.806Z,19.80
2018-07-30T04:14:50.536Z,19.37
2018-07-30T04:17:24.326Z,22.53
2018-07-30T04:19:58.174Z,22.87
2018-07-30T04:22:32.052Z,20.17
2018-07-30T04:25:05.856Z,18.67
2018-07-30T04:27:39.800Z,19.53
2018-07-30T04:30:13.692Z,22.07
2018-07-30T04:32:47.421Z,20.60
2018-07-30T04:35:21.370Z,22.43
2018-07-30T04:37:55.292Z,22.10
2018-07-30T04:40:29.205Z,21.03
2018-07-30T04:43:03.123Z,23.37
2018-07-30T04:45:36.967Z,21.27
2018-07-30T04:48:10.737Z,21.60
2018-07-30T04:50:44.521Z,21.47
2018-07-30T04:53:18.241Z,22.57
2018-07-30T04:55:52.160Z,22.43
2018-07-30T04:58:26.132Z,22.50
2018-07-30T05:01:00.561Z,22.57
2018-07-30T05:03:34.707Z,24.57
2018-07-30T05:06:09.029Z,22.83
2018-07-30T05:11:35.933Z,23.77
2018-07-30T05:15:41.263Z,24.50
2018-07-30T05:21:09.528Z,25.57
2018-07-30T05:23:43.599Z,26.30
2018-07-30T05:26:17.405Z,22.47
2018-07-30T05:28:53.561Z,24.93
2018-07-30T05:31:27.787Z,22.03
2018-07-30T05:34:01.672Z,22.87
2018-07-30T05:36:35.733Z,21.43
2018-07-30T05:39:10.789Z,22.57
2018-07-30T05:41:46.286Z,21.00
2018-07-30T05:44:20.112Z,23.07
2018-07-30T05:46:54.025Z,21.67
2018-07-30T05:49:27.909Z,19.77
2018-07-30T05:52:01.764Z,19.57
2018-07-30T05:54:35.576Z,18.40
2018-07-30T05:57:09.393Z,18.73
2018-07-30T05:59:43.402Z,18.37
2018-07-30T06:02:17.185Z,18.80
2018-07-30T06:04:50.812Z,16.50
2018-07-30T06:07:24.649Z,17.97
2018-07-30T06:09:59.236Z,15.17
2018-07-30T06:12:34.070Z,15.50
2018-07-30T06:15:08.519Z,15.70
2018-07-30T06:17:43.165Z,18.30
2018-07-30T06:20:16.992Z,17.90
2018-07-30T06:22:51.904Z,15.87
2018-07-30T06:25:25.679Z,15.87
2018-07-30T06:27:59.949Z,14.90
2018-07-30T06:30:34.577Z,13.20
2018-07-30T06:33:08.445Z,13.70
2018-07-30T06:35:42.193Z,11.53
2018-07-30T06:38:16.599Z,14.13
2018-07-30T06:40:51.153Z,14.10
2018-07-30T06:43:25.719Z,12.80
2018-07-30T06:45:59.936Z,14.20
2018-07-30T06:48:34.541Z,12.07
2018-07-30T06:51:08.566Z,12.47
2018-07-30T06:53:43.300Z,12.07
2018-07-30T06:56:17.284Z,12.93
2018-07-30T06:58:51.867Z,13.93
2018-07-30T07:01:26.397Z,12.57
2018-07-30T07:04:00.979Z,12.77
2018-07-30T07:06:35.242Z,12.50
2018-07-30T07:09:10.638Z,11.67
2018-07-30T07:11:44.658Z,10.10
2018-07-30T07:14:18.902Z,12.60
2018-07-30T07:16:52.928Z,14.00
2018-07-30T07:19:27.781Z,10.77
2018-07-30T07:22:01.761Z,9.90
2018-07-30T07:24:35.668Z,10.37
2018-07-30T07:27:10.307Z,10.17
2018-07-30T07:29:45.504Z,9.27
2018-07-30T07:32:20.369Z,11.13
2018-07-30T07:34:54.439Z,11.37
2018-07-30T07:37:29.123Z,11.50
2018-07-30T07:40:04.810Z,11.83
2018-07-30T07:42:38.536Z,10.43
2018-07-30T07:45:13.292Z,10.57
2018-07-30T07:47:48.160Z,8.90
2018-07-30T07:50:22.669Z,9.60
2018-07-30T07:52:56.396Z,10.07
2018-07-30T07:55:31.770Z,10.53
2018-07-30T07:58:05.770Z,10.93
2018-07-30T08:00:40.479Z,11.97
2018-07-30T08:03:15.150Z,12.70
2018-07-30T08:05:49.251Z,12.10
2018-07-30T08:08:23.159Z,10.80
2018-07-30T08:10:57.815Z,9.60
2018-07-30T08:13:32.527Z,10.90
2018-07-30T08:16:06.721Z,12.27
2018-07-30T08:18:40.558Z,9.93
2018-07-30T08:21:15.222Z,9.67
2018-07-30T08:23:49.778Z,11.60
2018-07-30T08:26:23.770Z,9.17
2018-07-30T08:28:58.641Z,9.90
2018-07-30T08:31:32.830Z,10.53
2018-07-30T08:34:06.948Z,10.00
2018-07-30T08:36:40.852Z,8.47
2018-07-30T08:39:15.256Z,9.73
2018-07-30T08:41:49.870Z,10.93
2018-07-30T08:44:24.627Z,9.00
2018-07-30T08:46:58.557Z,9.30
2018-07-30T08:49:33.600Z,11.07
2018-07-30T08:52:08.337Z,12.43
2018-07-30T08:54:42.403Z,7.67
2018-07-30T08:57:16.344Z,8.20
2018-07-30T08:59:50.984Z,9.93
2018-07-30T09:02:24.982Z,8.10
2018-07-30T09:04:59.493Z,8.70
2018-07-30T09:07:33.844Z,11.13
2018-07-30T09:10:08.367Z,11.73
2018-07-30T09:12:42.855Z,10.47
2018-07-30T09:15:16.597Z,9.10
2018-07-30T09:17:51.433Z,10.90
2018-07-30T09:20:26.924Z,11.63
2018-07-30T09:23:01.462Z,11.67
2018-07-30T09:25:35.459Z,11.37
2018-07-30T09:28:10.682Z,10.67
2018-07-30T09:30:44.907Z,11.63
2018-07-30T09:33:19.374Z,10.97
2018-07-30T09:35:53.144Z,13.43
2018-07-30T09:38:27.319Z,9.63
2018-07-30T09:41:01.109Z,10.47
2018-07-30T09:43:35.124Z,10.50
2018-07-30T09:46:09.288Z,9.10
2018-07-30T09:48:44.264Z,12.20
2018-07-30T09:51:18.848Z,11.27
2018-07-30T09:53:52.675Z,11.87
2018-07-30T09:56:26.710Z,11.43
2018-07-30T09:59:00.577Z,9.13
2018-07-30T10:01:35.460Z,12.87
2018-07-30T10:04:10.081Z,10.17
2018-07-30T10:06:45.495Z,11.47
2018-07-30T10:09:20.168Z,12.07
2018-07-30T10:11:55.799Z,10.10
2018-07-30T10:14:29.804Z,13.00
2018-07-30T10:17:04.175Z,10.47
2018-07-30T10:19:38.304Z,9.57
2018-07-30T10:22:12.736Z,9.57
2018-07-30T10:24:47.684Z,9.57
2018-07-30T10:27:22.191Z,9.60
2018-07-30T10:29:56.204Z,10.23
2018-07-30T10:32:30.933Z,10.17
2018-07-30T10:35:05.239Z,9.57
2018-07-30T10:37:40.361Z,10.90
2018-07-30T10:40:14.738Z,8.47
2018-07-30T10:42:49.564Z,10.77
2018-07-30T10:45:24.157Z,9.53
2018-07-30T10:47:59.217Z,9.63
2018-07-30T10:50:33.090Z,9.03
2018-07-30T10:53:07.312Z,9.40
2018-07-30T10:55:42.704Z,9.33
2018-07-30T10:58:17.793Z,10.13
2018-07-30T11:00:52.461Z,9.30
2018-07-30T11:03:26.388Z,10.00
2018-07-30T11:06:02.500Z,7.90
2018-07-30T11:08:36.714Z,7.17
2018-07-30T11:11:11.164Z,9.07
2018-07-30T11:13:45.289Z,12.03
2018-07-30T11:16:19.193Z,8.70
2018-07-30T11:18:53.010Z,10.30
2018-07-30T11:21:27.885Z,14.03
2018-07-30T11:24:01.892Z,9.83
2018-07-30T11:26:36.533Z,8.73
2018-07-30T11:29:10.865Z,9.60
2018-07-30T11:31:44.866Z,10.20
2018-07-30T11:34:19.645Z,13.63
2018-07-30T11:36:55.085Z,12.60
2018-07-30T11:39:29.654Z,11.70
2018-07-30T11:42:04.349Z,10.93
2018-07-30T11:44:39.230Z,11.60
2018-07-30T11:47:14.221Z,10.53
2018-07-30T11:49:48.759Z,10.13
2018-07-30T11:52:23.240Z,11.93
2018-07-30T11:54:57.114Z,13.57
2018-07-30T11:57:31.778Z,10.77
2018-07-30T12:00:05.791Z,9.67
2018-07-30T12:02:39.899Z,5.90
2018-07-30T12:05:13.773Z,5.73
2018-07-30T12:07:48.771Z,7.17
2018-07-30T12:10:22.723Z,4.70
2018-07-30T12:12:57.117Z,5.80
2018-07-30T12:15:31.084Z,6.60
2018-07-30T12:18:05.487Z,5.40
2018-07-30T12:20:39.931Z,4.43
2018-07-30T12:23:15.180Z,6.03
2018-07-30T12:25:49.420Z,3.90
2018-07-30T12:28:23.975Z,4.23
2018-07-30T12:30:58.041Z,5.33
2018-07-30T12:33:32.906Z,4.10
2018-07-30T12:36:07.306Z,4.87
2018-07-30T12:38:41.232Z,4.63
2018-07-30T12:41:15.803Z,3.80
2018-07-30T12:43:50.301Z,5.10
2018-07-30T12:46:24.809Z,4.23
2018-07-30T12:48:58.741Z,6.83
2018-07-30T12:51:33.958Z,5.47
2018-07-30T12:54:08.425Z,6.43
2018-07-30T12:56:42.397Z,5.27
2018-07-30T12:59:17.113Z,9.10
2018-07-30T13:01:51.741Z,7.43
2018-07-30T13:04:26.676Z,6.37
2018-07-30T13:07:00.392Z,9.27
2018-07-30T13:09:35.026Z,6.33
2018-07-30T13:12:10.491Z,5.47
2018-07-30T13:14:44.402Z,8.43
2018-07-30T13:17:18.522Z,6.10
2018-07-30T13:19:52.387Z,9.73
2018-07-30T13:22:26.300Z,6.33
2018-07-30T13:25:00.690Z,6.53
2018-07-30T13:27:35.126Z,10.50
2018-07-30T13:30:09.395Z,6.77
2018-07-30T13:32:44.753Z,8.27
2018-07-30T13:35:19.217Z,9.60
2018-07-30T13:37:53.824Z,9.67
2018-07-30T13:40:28.976Z,7.73
2018-07-30T13:43:02.844Z,8.53
2018-07-30T13:45:37.258Z,9.10
2018-07-30T13:48:11.949Z,10.00
2018-07-30T13:50:46.465Z,8.03
2018-07-30T13:53:21.850Z,10.87
2018-07-30T13:55:56.748Z,10.40
2018-07-30T13:58:31.805Z,9.00
2018-07-30T14:01:06.724Z,9.73
2018-07-30T14:03:40.517Z,9.93
2018-07-30T14:06:14.394Z,8.93
2018-07-30T14:08:48.838Z,7.13
2018-07-30T14:11:23.616Z,8.47
2018-07-30T14:13:57.586Z,7.67
2018-07-30T14:16:31.312Z,9.90
2018-07-30T14:19:06.634Z,11.40
2018-07-30T14:21:40.572Z,8.70
2018-07-30T14:24:15.203Z,8.30
2018-07-30T14:26:49.386Z,10.43
2018-07-30T14:29:24.200Z,9.17
2018-07-30T14:31:58.111Z,10.40
2018-07-30T14:34:34.072Z,8.33
2018-07-30T14:37:08.560Z,6.93
2018-07-30T14:39:43.336Z,10.77
2018-07-30T14:42:17.809Z,9.40
2018-07-30T14:44:52.500Z,9.03
2018-07-30T14:47:26.411Z,9.23
2018-07-30T14:50:00.633Z,13.13
2018-07-30T14:52:35.464Z,9.03
2018-07-30T14:55:09.432Z,10.57
2018-07-30T14:57:43.495Z,8.97
2018-07-30T15:00:18.462Z,11.60
2018-07-30T15:02:53.326Z,8.67
2018-07-30T15:05:27.963Z,8.20
2018-07-30T15:08:03.260Z,10.33
2018-07-30T15:10:37.923Z,7.93
2018-07-30T15:13:12.644Z,10.13
2018-07-30T15:15:47.417Z,9.33
2018-07-30T15:18:22.208Z,11.27
2018-07-30T15:20:56.935Z,10.57
2018-07-30T15:23:30.947Z,10.07
2018-07-30T15:26:05.540Z,7.33
2018-07-30T15:28:39.800Z,7.83
2018-07-30T15:31:13.832Z,8.87
2018-07-30T15:33:47.639Z,11.37
2018-07-30T15:36:22.572Z,6.67
2018-07-30T15:38:56.873Z,14.93
2018-07-30T15:41:31.637Z,11.47
2018-07-30T15:44:06.245Z,9.97
2018-07-30T15:46:40.176Z,8.93
2018-07-30T15:49:14.680Z,9.53
2018-07-30T15:51:49.686Z,8.93
2018-07-30T15:54:23.540Z,9.83
2018-07-30T15:56:57.506Z,8.80
2018-07-30T15:59:32.618Z,10.70
2018-07-30T16:02:06.689Z,7.90
2018-07-30T16:04:41.917Z,8.33
2018-07-30T16:07:16.350Z,10.10
2018-07-30T16:09:50.150Z,6.83
2018-07-30T16:12:24.843Z,7.53
2018-07-30T16:14:58.911Z,8.63
2018-07-30T16:17:33.508Z,10.50
2018-07-30T16:20:08.352Z,7.40
2018-07-30T16:22:42.846Z,8.27
2018-07-30T16:25:17.354Z,7.10
2018-07-30T16:27:52.739Z,8.60
2018-07-30T16:30:27.559Z,7.60
2018-07-30T16:33:01.592Z,9.40
2018-07-30T16:35:35.847Z,7.93
2018-07-30T16:38:10.528Z,6.53
2018-07-30T16:40:45.431Z,12.10
2018-07-30T16:43:19.439Z,8.97
2018-07-30T16:45:54.166Z,13.03
2018-07-30T16:48:28.272Z,8.97
2018-07-30T16:51:03.047Z,7.47
2018-07-30T16:53:38.181Z,7.33
2018-07-30T16:56:12.364Z,8.70
2018-07-30T16:58:46.366Z,9.30
2018-07-30T17:01:20.380Z,10.53
2018-07-30T17:03:55.388Z,10.73
2018-07-30T17:06:30.246Z,8.33
2018-07-30T17:09:06.121Z,7.97
2018-07-30T17:11:41.758Z,9.10
2018-07-30T17:14:15.745Z,11.23
2018-07-30T17:16:49.813Z,10.07
2018-07-30T17:19:23.787Z,11.43
2018-07-30T17:21:57.798Z,7.63
2018-07-30T17:24:31.693Z,11.33
2018-07-30T17:27:06.476Z,7.70
2018-07-30T17:29:40.524Z,8.43
2018-07-30T17:32:14.455Z,9.50
2018-07-30T17:34:48.562Z,9.20
2018-07-30T17:37:23.195Z,9.27
2018-07-30T17:39:57.245Z,8.77
2018-07-30T17:42:31.141Z,7.80
2018-07-30T17:45:05.469Z,7.03
2018-07-30T17:47:41.190Z,7.57
2018-07-30T17:50:15.183Z,8.40
2018-07-30T17:52:49.219Z,9.93
2018-07-30T17:55:23.457Z,9.33
2018-07-30T17:57:58.122Z,9.20
2018-07-30T18:00:32.400Z,8.60
2018-07-30T18:03:06.422Z,12.20
2018-07-30T18:05:40.298Z,9.57
2018-07-30T18:08:14.604Z,9.70
2018-07-30T18:10:48.672Z,11.17
2018-07-30T18:13:22.524Z,7.70
2018-07-30T18:15:58.789Z,9.80
2018-07-30T18:18:33.811Z,10.17
2018-07-30T18:21:08.492Z,7.03
2018-07-30T18:23:42.366Z,8.50
2018-07-30T18:26:17.860Z,8.83
2018-07-30T18:28:52.327Z,9.17
2018-07-30T18:31:26.346Z,8.50
2018-07-30T18:34:00.286Z,8.90
2018-07-30T18:36:35.049Z,9.27
2018-07-30T18:39:09.217Z,7.20
2018-07-30T18:41:44.353Z,9.03
2018-07-30T18:44:19.255Z,6.03
2018-07-30T18:46:53.748Z,7.10
2018-07-30T18:49:27.700Z,6.00
2018-07-30T18:52:02.438Z,7.93
2018-07-30T18:54:36.947Z,6.07
2018-07-30T18:57:11.396Z,7.50
2018-07-30T18:59:46.497Z,4.90
2018-07-30T19:02:21.288Z,5.90
2018-07-30T19:04:56.470Z,7.07
2018-07-30T19:07:31.745Z,5.20
2018-07-30T19:10:06.138Z,5.17
2018-07-30T19:12:40.516Z,4.40
2018-07-30T19:15:15.155Z,4.33
2018-07-30T19:17:49.206Z,3.40
2018-07-30T19:20:23.244Z,3.40
2018-07-30T19:22:57.955Z,4.07
2018-07-30T19:25:32.051Z,3.97
2018-07-30T19:28:06.549Z,3.87
2018-07-30T19:30:40.470Z,3.43
2018-07-30T19:33:15.609Z,3.77
2018-07-30T19:35:50.129Z,3.80
2018-07-30T19:38:24.459Z,3.50
2018-07-30T19:40:59.023Z,3.53
2018-07-30T19:43:33.758Z,3.53
2018-07-30T19:46:08.490Z,6.77
2018-07-30T19:48:43.247Z,5.37
2018-07-30T19:51:17.835Z,4.63
2018-07-30T19:53:52.361Z,5.63
2018-07-30T19:56:27.144Z,5.10
2018-07-30T19:59:01.377Z,5.13
2018-07-30T20:01:35.995Z,6.57
2018-07-30T20:04:11.180Z,4.93
2018-07-30T20:06:45.514Z,5.07
2018-07-30T20:09:19.473Z,9.40
2018-07-30T20:11:53.410Z,5.57
2018-07-30T20:14:27.789Z,6.53
2018-07-30T20:17:01.695Z,4.70
2018-07-30T20:19:35.508Z,8.83
2018-07-30T20:22:10.594Z,5.50
2018-07-30T20:24:46.295Z,5.27
2018-07-30T20:27:20.717Z,4.57
2018-07-30T20:29:54.563Z,5.43
2018-07-30T20:32:28.636Z,6.50
2018-07-30T20:35:02.791Z,8.60
2018-07-30T20:37:37.503Z,4.77
2018-07-30T20:40:11.383Z,6.50
2018-07-30T20:42:45.264Z,5.93
2018-07-30T20:45:19.296Z,7.30
2018-07-30T20:47:53.301Z,8.97
2018-07-30T20:50:28.172Z,6.10
2018-07-30T20:53:02.667Z,7.90
2018-07-30T20:55:37.012Z,5.10
2018-07-30T20:58:14.828Z,8.70
2018-07-30T21:00:50.492Z,6.10
2018-07-30T21:03:24.385Z,6.13
2018-07-30T21:05:58.366Z,8.70
2018-07-30T21:08:33.297Z,8.20
2018-07-30T21:11:07.664Z,4.33
2018-07-30T21:13:41.534Z,5.87
2018-07-30T21:16:15.330Z,5.03
2018-07-30T21:18:49.122Z,5.43
2018-07-30T21:21:23.249Z,6.67
2018-07-30T21:23:58.066Z,5.00
2018-07-30T21:26:32.637Z,5.20
2018-07-30T21:29:06.874Z,5.20
2018-07-30T21:31:41.174Z,8.43
2018-07-30T21:34:16.008Z,6.47
2018-07-30T21:36:49.908Z,5.87
2018-07-30T21:39:24.821Z,6.17
2018-07-30T21:41:59.555Z,5.47
2018-07-30T21:44:33.481Z,7.27
2018-07-30T21:47:08.718Z,7.00
2018-07-30T21:49:43.496Z,7.57
2018-07-30T21:52:17.500Z,6.37
2018-07-30T21:54:51.546Z,7.93
2018-07-30T21:57:26.633Z,7.57
2018-07-30T22:00:01.393Z,5.53
2018-07-30T22:02:36.020Z,7.17
2018-07-30T22:05:11.441Z,7.57
2018-07-30T22:07:45.909Z,6.63
2018-07-30T22:10:21.853Z,5.60
2018-07-30T22:12:55.967Z,6.97
2018-07-30T22:15:29.912Z,9.23
2018-07-30T22:18:04.452Z,7.63
2018-07-30T22:20:38.311Z,8.10
2018-07-30T22:23:12.134Z,9.80
2018-07-30T22:25:46.727Z,7.97
2018-07-30T22:28:20.694Z,6.30
2018-07-30T22:30:54.719Z,7.03
2018-07-30T22:33:28.568Z,6.67
2018-07-30T22:36:02.311Z,7.33
2018-07-30T22:38:37.094Z,7.23
2018-07-30T22:41:11.161Z,7.53
2018-07-30T22:43:45.162Z,8.83
2018-07-30T22:46:19.074Z,8.60
2018-07-30T22:48:53.081Z,8.63
2018-07-30T22:51:28.206Z,8.93
2018-07-30T22:54:02.333Z,8.90
2018-07-30T22:56:36.452Z,8.97
2018-07-30T22:59:10.418Z,7.87
2018-07-30T23:01:44.671Z,7.07
2018-07-30T23:04:20.123Z,8.50
2018-07-30T23:06:54.116Z,9.43
2018-07-30T23:09:28.119Z,8.07
2018-07-30T23:12:03.518Z,10.40
2018-07-30T23:14:37.517Z,9.60
2018-07-30T23:17:11.520Z,8.47
2018-07-30T23:19:46.501Z,8.90
2018-07-30T23:22:21.174Z,8.40
2018-07-30T23:24:55.253Z,7.83
2018-07-30T23:27:29.153Z,8.27
2018-07-30T23:30:02.910Z,8.57
2018-07-30T23:32:37.061Z,8.80
2018-07-30T23:35:10.891Z,9.20
2018-07-30T23:37:44.876Z,10.50
2018-07-30T23:40:18.708Z,9.93
2018-07-30T23:42:52.924Z,8.60
2018-07-30T23:45:27.278Z,9.60
2018-07-30T23:48:01.684Z,10.03
2018-07-30T23:50:36.545Z,9.47
2018-07-30T23:53:10.410Z,10.77
2018-07-30T23:55:44.457Z,9.77
2018-07-30T23:58:18.694Z,10.00
